Archival Weather

Central Park

Central Park, New York (KNYC)

Report from: Tuesday, September 19, 2023 9:51 PM EDT
Current time: Monday, June 17, 2024 7:25 AM EDT

Current weather – Weather history – Daily summaries
Weather forecast

Temperature18.3°C (64.9°F)
Dew point9.4°C (48.9°F)
Winds 3 kts (1.5 m/s, 3.5 mph) Vrb
Winds variableWinds variable
Visibility10 mi. (16.1 km)
Clouds Sky clear
Altimeter30.07 in.Hg (1018 mB)
Relative humidity56 %
Density altitude416 ft. (127 m)
Sea-level pressure101.7 kPa (1017 mB, 30.04 in.Hg)
Remarks Fully automated report
System requires maintenance
Automated weather observing station with precipitation discriminator
Flight conditions Visual Meteorological Conditions
Raw dataKNYC 200151Z AUTO VRB03KT 10SM CLR 18/09 A3007 RMK AO2 SLP174 T01830094 $
An error has occurred. This application may no longer respond until reloaded. Reload 🗙